Terminal Aerodrome Forecast
Issued by NWS Tulsa, OK

Home | Current Version | Previous Version | Text Only | Print | Product List | Glossary On
Versions: 1 2 3 4 5 6 7 8 9 10 11 12 13
000
FTUS44 KTSA 290520
TAFFSM
TAF
KFSM 290520Z 2906/3006 08008KT P6SM SCT015 BKN035
      TEMPO 2906/2910 3SM TSRA BR BKN015CB
     FM291000 13012KT 5SM -TSRA BR OVC015CB=

USA.gov is the U.S. government's official web portal to all federal, state and local government web resources and services.